createdAt,value
2017-03-11T00:02:33.577Z,87.616
2017-03-11T00:05:39.098Z,87.612
2017-03-11T00:08:36.053Z,87.781
2017-03-11T00:11:47.826Z,87.892
2017-03-11T00:14:52.906Z,87.888
2017-03-11T00:17:58.002Z,87.884
2017-03-11T00:21:03.225Z,87.884
2017-03-11T00:24:07.221Z,87.975
2017-03-11T00:27:13.092Z,88.151
2017-03-11T00:30:16.816Z,88.097
2017-03-11T00:33:22.008Z,88.180
2017-03-11T01:16:21.102Z,89.493
2017-03-11T01:19:24.908Z,89.422
2017-03-11T01:22:29.956Z,89.559
2017-03-11T01:28:39.315Z,89.709
2017-03-11T01:31:40.864Z,89.823
2017-03-11T01:34:45.717Z,89.992
2017-03-11T01:37:50.794Z,89.963
2017-03-11T01:40:55.690Z,89.965
2017-03-11T01:44:00.341Z,90.105
2017-03-11T02:26:56.468Z,90.760
2017-03-11T02:30:01.698Z,91.112
2017-03-11T03:06:57.775Z,91.977
2017-03-11T03:10:02.188Z,92.098
2017-03-11T03:13:01.362Z,92.022
2017-03-11T04:36:03.900Z,91.612
2017-03-11T04:39:02.738Z,91.697
2017-03-11T04:42:14.274Z,91.571
2017-03-11T04:45:19.419Z,91.618
2017-03-11T04:48:16.362Z,91.609
2017-03-11T04:51:31.194Z,91.575
2017-03-11T04:57:37.457Z,91.377
2017-03-11T05:00:36.537Z,91.173
2017-03-11T05:03:43.845Z,91.128
2017-03-11T05:06:53.280Z,91.161
2017-03-11T05:09:56.657Z,91.193
2017-03-11T05:13:01.004Z,91.215
2017-03-11T06:39:04.566Z,93.215
2017-03-11T06:54:26.278Z,93.486
2017-03-11T07:00:36.391Z,93.432
2017-03-11T07:03:41.490Z,93.283
2017-03-11T07:06:46.550Z,93.195
2017-03-11T07:09:51.797Z,93.096
2017-03-11T07:12:56.922Z,93.044
2017-03-11T07:19:05.561Z,92.845
2017-03-11T08:23:38.440Z,90.512
2017-03-11T08:51:14.874Z,90.186
2017-03-11T08:57:22.648Z,90.400
2017-03-11T09:09:37.166Z,89.253
2017-03-11T09:12:41.717Z,89.074
2017-03-11T09:46:31.687Z,88.572
2017-03-11T09:49:37.951Z,87.887
2017-03-11T09:52:41.342Z,88.186
2017-03-11T09:55:46.177Z,87.873
2017-03-11T09:58:51.497Z,87.818
2017-03-11T10:01:56.401Z,88.131
2017-03-11T10:05:01.520Z,88.371
2017-03-11T10:07:59.966Z,87.587
2017-03-11T10:11:11.572Z,87.507
2017-03-11T10:17:15.484Z,87.192
2017-03-11T10:20:19.875Z,85.421
2017-03-11T10:23:33.328Z,83.495
2017-03-11T10:26:38.873Z,84.151
2017-03-11T10:29:43.546Z,82.909
2017-03-11T10:32:48.133Z,81.845
2017-03-11T10:35:53.570Z,81.124
2017-03-11T10:38:58.663Z,81.701
2017-03-11T10:41:57.021Z,82.803
2017-03-11T10:45:09.944Z,82.105
2017-03-11T10:48:14.221Z,82.045
2017-03-11T10:51:11.909Z,82.243
2017-03-11T10:54:25.283Z,81.183
2017-03-11T10:57:24.624Z,80.970
2017-03-11T11:00:29.240Z,79.833
2017-03-11T11:03:36.885Z,78.723
2017-03-11T11:06:48.511Z,77.838
2017-03-11T11:09:53.455Z,76.238
2017-03-11T11:12:59.571Z,76.160
2017-03-11T11:16:03.870Z,73.397
2017-03-11T11:19:09.128Z,73.018
2017-03-11T11:22:06.461Z,74.202
2017-03-11T11:25:20.204Z,73.931
2017-03-11T11:28:17.837Z,74.554
2017-03-11T11:31:23.513Z,73.179
2017-03-11T11:34:36.914Z,73.444
2017-03-11T11:37:42.374Z,74.853
2017-03-11T11:40:49.005Z,75.495
2017-03-11T11:43:52.074Z,75.998
2017-03-11T11:46:57.454Z,75.536
2017-03-11T11:50:02.292Z,75.991
2017-03-11T11:53:07.657Z,75.897
2017-03-11T12:33:10.197Z,75.775
2017-03-11T12:36:12.260Z,74.978
2017-03-11T12:39:19.232Z,74.740
2017-03-11T12:42:14.378Z,74.733
2017-03-11T12:45:27.454Z,73.360
2017-03-11T12:48:32.929Z,71.690
2017-03-11T12:51:37.910Z,71.770
2017-03-11T12:54:43.296Z,71.630
2017-03-11T12:57:40.838Z,70.791
2017-03-11T13:00:55.511Z,69.312
2017-03-11T13:03:59.601Z,68.137
2017-03-11T13:07:05.202Z,68.236
2017-03-11T13:10:10.553Z,68.685
2017-03-11T13:13:16.013Z,67.916
2017-03-11T13:19:27.290Z,68.342
2017-03-11T13:22:29.557Z,68.716
2017-03-11T13:25:34.870Z,70.148
2017-03-11T13:28:40.265Z,69.252
2017-03-11T13:34:50.846Z,71.134
2017-03-11T13:37:57.159Z,70.758
2017-03-11T13:41:02.155Z,70.254
2017-03-11T13:44:05.932Z,70.200
2017-03-11T13:47:11.506Z,70.863
2017-03-11T13:50:16.403Z,69.798
2017-03-11T13:53:14.582Z,70.001
2017-03-11T15:51:38.244Z,65.499
2017-03-11T15:54:43.002Z,65.912
2017-03-11T16:00:52.539Z,66.558
2017-03-11T16:03:58.069Z,65.751
2017-03-11T17:14:02.395Z,74.613
2017-03-11T17:17:01.559Z,73.853
2017-03-11T17:20:05.483Z,74.101
2017-03-11T17:51:00.287Z,74.652
2017-03-11T17:54:04.954Z,74.755
2017-03-11T17:57:10.298Z,74.872
2017-03-11T18:00:15.707Z,75.374
2017-03-11T18:03:20.920Z,75.453
2017-03-11T18:27:56.907Z,76.181
2017-03-11T18:31:02.167Z,76.200
2017-03-11T18:34:07.354Z,76.360
2017-03-11T18:37:12.480Z,76.566
2017-03-11T18:43:22.631Z,76.838
2017-03-11T18:46:22.033Z,76.853
2017-03-11T18:49:33.789Z,77.080
2017-03-11T18:52:39.071Z,77.428
2017-03-11T18:55:36.509Z,77.325
2017-03-11T18:58:50.467Z,77.658
2017-03-11T19:01:48.864Z,77.571
2017-03-11T19:05:00.621Z,77.901
2017-03-11T19:11:11.530Z,78.269
2017-03-11T19:14:17.073Z,78.305
2017-03-11T19:17:21.513Z,77.955
2017-03-11T19:20:26.586Z,77.933
2017-03-11T19:23:31.858Z,77.806
2017-03-11T19:26:36.847Z,77.757
2017-03-11T19:29:42.124Z,77.724
2017-03-11T19:32:39.535Z,77.903
2017-03-11T19:35:52.971Z,78.192
2017-03-11T19:38:52.115Z,78.130
2017-03-11T19:42:03.351Z,78.128
2017-03-11T19:45:08.651Z,78.331
2017-03-11T19:48:13.881Z,78.417
2017-03-11T19:51:11.480Z,78.307
2017-03-11T19:54:26.037Z,78.215
2017-03-11T19:57:29.672Z,78.375
2017-03-11T20:03:39.925Z,78.377
2017-03-11T20:06:37.511Z,78.371
2017-03-11T20:09:51.384Z,78.319
2017-03-11T20:16:00.058Z,78.132
2017-03-11T20:19:05.339Z,78.413
2017-03-11T20:22:10.201Z,78.576
2017-03-11T20:25:15.515Z,78.491
2017-03-11T20:28:20.329Z,78.439
2017-03-11T20:31:25.724Z,78.370
2017-03-11T20:34:30.992Z,78.340
2017-03-11T20:37:35.862Z,78.401
2017-03-11T20:40:41.284Z,78.531
2017-03-11T20:43:42.853Z,78.376
2017-03-11T20:46:48.490Z,78.464
2017-03-11T20:49:52.640Z,78.452
2017-03-11T20:52:57.900Z,78.417
2017-03-11T20:55:55.152Z,78.400
2017-03-11T20:59:09.014Z,78.492
2017-03-11T21:02:11.724Z,78.526
2017-03-11T21:08:21.495Z,78.762
2017-03-11T21:14:31.026Z,78.789
2017-03-11T21:20:41.066Z,79.094
2017-03-11T21:23:38.509Z,78.929
2017-03-11T21:26:52.798Z,79.228
2017-03-11T21:29:57.497Z,78.592
2017-03-11T21:36:06.638Z,78.791
2017-03-11T21:39:10.673Z,79.023
2017-03-11T21:42:15.850Z,78.809
2017-03-11T21:45:20.955Z,79.003
2017-03-11T21:48:18.267Z,79.016
2017-03-11T21:51:23.812Z,79.004
2017-03-11T21:54:37.276Z,79.221
2017-03-11T21:57:41.951Z,79.047
2017-03-11T22:00:47.006Z,79.139
2017-03-11T22:03:51.904Z,79.173
2017-03-11T22:10:03.539Z,79.135
2017-03-11T22:12:57.017Z,79.337
2017-03-11T22:16:10.609Z,79.300
2017-03-11T22:19:15.361Z,79.219
2017-03-11T22:22:20.402Z,79.165
2017-03-11T22:28:31.322Z,79.534
2017-03-11T22:37:46.983Z,79.865
2017-03-11T22:40:51.239Z,80.008
2017-03-11T22:43:56.116Z,80.080
2017-03-11T22:47:01.264Z,80.237
2017-03-11T22:50:06.902Z,80.151
2017-03-11T22:53:09.460Z,80.086
2017-03-11T22:56:14.197Z,80.339
2017-03-11T22:59:19.124Z,80.509
2017-03-11T23:02:24.841Z,80.557
2017-03-11T23:05:29.529Z,80.587
2017-03-11T23:08:32.897Z,80.794
2017-03-11T23:11:38.115Z,80.796
2017-03-11T23:14:42.943Z,80.938
2017-03-11T23:17:47.506Z,80.933
2017-03-11T23:20:44.413Z,81.085
2017-03-11T23:23:57.707Z,81.318
2017-03-11T23:27:02.928Z,81.206
2017-03-11T23:30:06.298Z,81.461
2017-03-11T23:33:11.363Z,81.551
2017-03-11T23:36:09.313Z,81.512
2017-03-11T23:39:21.764Z,81.497
2017-03-11T23:42:26.521Z,81.601
2017-03-11T23:45:31.539Z,81.488
2017-03-11T23:48:35.928Z,81.569
2017-03-11T23:51:33.223Z,81.416
2017-03-11T23:54:38.398Z,81.483
2017-03-11T23:57:45.856Z,81.424
